Prosser Lakeview, California
Current Conditions -  °F | °C
As of 10:50 AM on Friday 28 Nov 2014 (Local Time) from KTRK Reporting Station
Few Clouds Few Clouds  
Wind Chill: 55°   Ceiling: Unl
Heat Index: 55°   Visibility: 10mi
Dew Point: -6°   Wind: 20mph
Humidity: 8%   Direction: 230°SW
Pressure: 30.07"   Gusts: 33mph
Location:  39.3569°N, 120.175°W
Report Text: KTRK 281850Z 23017G29KT 10SM FEW100 FEW130 13/M21 A3007 RMK NOSPECI
Loading
Personal Weather Stations






























Interactive Weather Map New forecast layout! Learn more

10-Day Weather Forecast

Advertisements
Track Severe Weather on mobile